createdAt,value
2022-11-23T00:01:19.284Z,98793.56
2022-11-23T00:03:48.708Z,98791.97
2022-11-23T00:06:18.584Z,98797.41
2022-11-23T00:08:46.828Z,98797.63
2022-11-23T00:11:14.763Z,98801.81
2022-11-23T00:13:43.034Z,98805.38
2022-11-23T00:16:15.146Z,98798.44
2022-11-23T00:18:44.323Z,98805.84
2022-11-23T00:21:14.207Z,98804.00
2022-11-23T00:23:44.078Z,98803.75
2022-11-23T00:26:14.007Z,98802.16
2022-11-23T00:28:42.103Z,98807.97
2022-11-23T00:31:11.610Z,98813.59
2022-11-23T00:33:40.429Z,98806.50
2022-11-23T00:36:15.266Z,98801.19
2022-11-23T00:38:44.687Z,98803.28
2022-11-23T00:41:14.930Z,98805.22
2022-11-23T00:43:43.622Z,98810.91
2022-11-23T00:46:16.199Z,98805.56
2022-11-23T00:48:44.369Z,98795.38
2022-11-23T00:51:15.298Z,98801.63
2022-11-23T00:53:43.587Z,98804.59
2022-11-23T00:56:13.904Z,98812.38
2022-11-23T00:58:43.890Z,98806.47
2022-11-23T01:01:14.828Z,98805.97
2022-11-23T01:03:44.796Z,98803.66
2022-11-23T01:06:16.424Z,98806.31
2022-11-23T01:08:49.740Z,98803.66
2022-11-23T01:11:18.534Z,98812.22
2022-11-23T01:13:46.807Z,98809.53
2022-11-23T01:16:23.461Z,98812.22
2022-11-23T01:18:53.764Z,98815.94
2022-11-23T01:21:27.748Z,98815.94
2022-11-23T01:23:55.524Z,98816.75
2022-11-23T01:26:25.258Z,98817.53
2022-11-23T01:28:53.012Z,98813.19
2022-11-23T01:31:24.589Z,98820.72
2022-11-23T01:33:54.382Z,98831.94
2022-11-23T01:36:26.849Z,98828.47
2022-11-23T01:38:56.696Z,98830.41
2022-11-23T01:41:26.341Z,98827.75
2022-11-23T01:43:55.205Z,98829.59
2022-11-23T01:46:23.403Z,98835.25
2022-11-23T01:48:54.239Z,98828.72
2022-11-23T01:51:28.686Z,98840.59
2022-11-23T01:54:03.717Z,98841.63
2022-11-23T01:56:34.741Z,98842.91
2022-11-23T01:59:16.661Z,98850.69
2022-11-23T02:01:44.642Z,98847.47
2022-11-23T02:04:16.475Z,98848.75
2022-11-23T02:06:47.788Z,98855.38
2022-11-23T02:09:18.010Z,98855.84
2022-11-23T02:11:46.851Z,98854.78
2022-11-23T02:17:55.862Z,98854.13
2022-11-23T02:20:23.956Z,98871.41
2022-11-23T02:23:03.377Z,98871.88
2022-11-23T02:25:39.668Z,98874.31
2022-11-23T02:28:09.349Z,98869.09
2022-11-23T02:30:37.928Z,98865.81
2022-11-23T02:33:06.305Z,98875.47
2022-11-23T02:35:34.210Z,98876.50
2022-11-23T02:38:03.789Z,98873.34
2022-11-23T02:40:36.631Z,98877.88
2022-11-23T02:43:04.420Z,98878.13
2022-11-23T02:45:39.243Z,98885.56
2022-11-23T02:48:07.611Z,98893.00
2022-11-23T02:50:35.371Z,98890.88
2022-11-23T02:53:04.008Z,98885.09
2022-11-23T02:55:35.534Z,98892.50
2022-11-23T02:58:03.140Z,98890.41
2022-11-23T03:00:31.700Z,98888.31
2022-11-23T03:03:02.292Z,98892.03
2022-11-23T03:05:30.059Z,98897.34
2022-11-23T03:08:00.108Z,98891.19
2022-11-23T03:10:28.094Z,98895.75
2022-11-23T03:12:57.823Z,98891.44
2022-11-23T03:15:26.020Z,98895.75
2022-11-23T03:17:54.476Z,98893.66
2022-11-23T03:20:26.860Z,98904.31
2022-11-23T03:22:54.666Z,98906.41
2022-11-23T03:25:24.176Z,98903.97
2022-11-23T03:27:53.329Z,98906.41
2022-11-23T03:30:22.089Z,98903.75
2022-11-23T03:32:49.875Z,98920.78
2022-11-23T03:35:18.637Z,98917.66
2022-11-23T03:37:48.829Z,98917.19
2022-11-23T03:40:16.751Z,98912.88
2022-11-23T03:42:44.445Z,98909.66
2022-11-23T03:45:12.995Z,98911.84
2022-11-23T03:47:40.756Z,98908.84
2022-11-23T03:50:11.356Z,98905.91
2022-11-23T03:52:40.040Z,98915.28
2022-11-23T03:55:11.466Z,98903.84
2022-11-23T03:57:40.124Z,98901.75
2022-11-23T04:00:09.452Z,98906.59
2022-11-23T04:02:37.068Z,98905.78
2022-11-23T04:05:05.440Z,98908.72
2022-11-23T04:07:33.167Z,98901.28
2022-11-23T04:10:01.485Z,98900.00
2022-11-23T04:12:31.477Z,98905.88
2022-11-23T04:15:00.018Z,98890.13
2022-11-23T04:17:29.471Z,98901.59
2022-11-23T04:19:58.266Z,98900.91
2022-11-23T04:22:25.964Z,98894.50
2022-11-23T04:24:56.117Z,98904.03
2022-11-23T04:27:23.814Z,98894.50
2022-11-23T04:29:52.929Z,98891.63
2022-11-23T04:32:20.558Z,98897.16
2022-11-23T04:34:50.473Z,98894.50
2022-11-23T04:37:19.406Z,98897.72
2022-11-23T04:39:47.878Z,98896.13
2022-11-23T04:42:15.574Z,98903.06
2022-11-23T04:44:44.066Z,98896.13
2022-11-23T04:47:13.513Z,98901.56
2022-11-23T04:49:41.170Z,98895.66
2022-11-23T04:52:09.598Z,98903.88
2022-11-23T04:54:38.399Z,98907.03
2022-11-23T04:57:07.055Z,98914.56
2022-11-23T04:59:34.843Z,98908.41
2022-11-23T05:02:02.939Z,98917.22
2022-11-23T05:04:34.385Z,98917.38
2022-11-23T05:07:02.876Z,98926.75
2022-11-23T05:09:31.187Z,98932.09
2022-11-23T05:12:00.056Z,98922.81
2022-11-23T05:14:27.871Z,98925.13
2022-11-23T05:16:56.194Z,98926.97
2022-11-23T05:19:23.951Z,98928.03
2022-11-23T05:21:54.417Z,98926.66
2022-11-23T05:24:22.797Z,98934.41
2022-11-23T05:26:55.960Z,98936.03
2022-11-23T05:29:23.903Z,98936.84
2022-11-23T05:31:52.191Z,98935.56
2022-11-23T05:34:19.804Z,98936.03
2022-11-23T05:36:49.837Z,98940.56
2022-11-23T05:39:20.102Z,98945.06
2022-11-23T05:41:48.080Z,98945.06
2022-11-23T05:44:16.272Z,98939.75
2022-11-23T05:46:43.875Z,98949.94
2022-11-23T05:49:13.461Z,98950.41
2022-11-23T05:51:41.210Z,98950.88
2022-11-23T05:54:09.530Z,98941.59
2022-11-23T05:56:40.630Z,98951.13
2022-11-23T05:59:10.052Z,98953.53
2022-11-23T06:01:38.064Z,98947.66
2022-11-23T06:04:07.337Z,98959.94
2022-11-23T06:06:35.798Z,98959.38
2022-11-23T06:09:08.730Z,98960.97
2022-11-23T06:11:38.182Z,98961.22
2022-11-23T06:14:12.755Z,98961.53
2022-11-23T06:16:42.198Z,98965.75
2022-11-23T06:19:09.802Z,98963.66
2022-11-23T06:21:38.350Z,98962.38
2022-11-23T06:24:07.478Z,98962.59
2022-11-23T06:26:36.273Z,98955.06
2022-11-23T06:29:04.254Z,98960.41
2022-11-23T06:31:33.478Z,98962.50
2022-11-23T06:34:01.440Z,98967.38
2022-11-23T06:36:29.179Z,98961.44
2022-11-23T06:38:56.848Z,98963.06
2022-11-23T06:41:32.050Z,98968.41
2022-11-23T06:44:00.187Z,98965.63
2022-11-23T06:46:27.794Z,98971.91
2022-11-23T06:48:57.027Z,98974.47
2022-11-23T06:51:26.083Z,98966.22
2022-11-23T06:53:53.941Z,98979.06
2022-11-23T06:56:21.977Z,98974.31
2022-11-23T06:58:49.858Z,98972.09
2022-11-23T07:02:19.179Z,98983.13
2022-11-23T07:04:48.214Z,98978.03
2022-11-23T07:07:16.084Z,98972.47
2022-11-23T07:09:43.705Z,98981.03
2022-11-23T07:12:13.187Z,98978.16
2022-11-23T07:14:41.418Z,98984.25
2022-11-23T07:17:11.745Z,98991.78
2022-11-23T07:19:42.022Z,98990.97
2022-11-23T07:22:14.546Z,98992.63
2022-11-23T07:24:46.531Z,98990.97
2022-11-23T07:27:14.965Z,98990.19
2022-11-23T07:29:44.304Z,98998.97
2022-11-23T07:32:14.651Z,98997.94
2022-11-23T07:34:42.286Z,99002.25
2022-11-23T07:37:10.068Z,99013.50
2022-11-23T07:42:33.927Z,99011.38
2022-11-23T07:46:03.855Z,99012.53
2022-11-23T07:48:36.124Z,99010.44
2022-11-23T07:51:04.309Z,99011.50
2022-11-23T07:53:32.182Z,99010.66
2022-11-23T07:56:01.129Z,99010.78
2022-11-23T07:58:29.107Z,99010.66
2022-11-23T08:00:57.020Z,99002.66
2022-11-23T08:03:28.631Z,99010.66
2022-11-23T08:05:56.845Z,99008.88
2022-11-23T08:08:24.736Z,99010.50
2022-11-23T08:10:54.113Z,99014.00
2022-11-23T08:13:23.898Z,99010.75
2022-11-23T08:15:55.238Z,99019.53
2022-11-23T08:18:24.265Z,99008.97
2022-11-23T08:20:51.809Z,99020.34
2022-11-23T08:23:19.448Z,99019.75
2022-11-23T08:25:47.399Z,99014.06
2022-11-23T08:28:15.132Z,99016.59
2022-11-23T08:30:44.397Z,99017.72
2022-11-23T08:33:13.918Z,99016.09
2022-11-23T08:35:42.760Z,99016.19
2022-11-23T08:38:11.345Z,99010.28
2022-11-23T08:40:39.770Z,99014.50
2022-11-23T08:43:08.295Z,99009.16
2022-11-23T08:45:35.928Z,99024.72
2022-11-23T08:48:06.316Z,99021.31
2022-11-23T08:50:35.392Z,99019.06
2022-11-23T08:53:03.051Z,99020.03
2022-11-23T08:55:30.992Z,99016.00
2022-11-23T08:57:59.922Z,99014.41
2022-11-23T09:00:28.513Z,99020.38
2022-11-23T09:02:59.081Z,99022.50
2022-11-23T09:05:28.466Z,99023.53
2022-11-23T09:07:56.122Z,99027.19
2022-11-23T09:10:23.974Z,99024.59
2022-11-23T09:12:52.826Z,99018.69
2022-11-23T09:15:20.540Z,99012.06
2022-11-23T09:17:48.236Z,99017.50
2022-11-23T09:20:16.981Z,99019.66
2022-11-23T09:22:51.949Z,99016.50
2022-11-23T09:25:19.989Z,99016.97
2022-11-23T09:27:48.889Z,99020.91
2022-11-23T09:30:18.177Z,99025.75
2022-11-23T09:32:45.811Z,99026.16
2022-11-23T09:35:13.380Z,99013.75
2022-11-23T09:37:41.019Z,99019.81
2022-11-23T09:40:13.273Z,99025.41
2022-11-23T09:42:47.454Z,99024.25
2022-11-23T09:45:20.429Z,99020.56
2022-11-23T09:48:00.931Z,99020.19
2022-11-23T09:50:30.347Z,99019.19
2022-11-23T09:52:57.919Z,99018.22
2022-11-23T09:55:35.541Z,99015.69
2022-11-23T09:58:05.599Z,99015.41
2022-11-23T10:00:38.793Z,99017.06
2022-11-23T10:03:06.851Z,99016.84
2022-11-23T10:05:39.562Z,99022.81
2022-11-23T10:08:12.943Z,99018.56
2022-11-23T10:10:45.050Z,99021.47
2022-11-23T10:13:28.723Z,99015.88
2022-11-23T10:16:08.014Z,99015.72
2022-11-23T10:18:43.417Z,99008.81
2022-11-23T10:21:18.234Z,99012.19
2022-11-23T10:23:56.286Z,99012.88
2022-11-23T10:26:29.619Z,99018.25
2022-11-23T10:28:58.810Z,99014.69
2022-11-23T10:31:27.353Z,99012.88
2022-11-23T10:33:57.834Z,99014.75
2022-11-23T10:36:25.449Z,99028.56
2022-11-23T10:38:56.755Z,99013.88
2022-11-23T10:41:24.530Z,99018.03
2022-11-23T10:43:57.725Z,99016.66
2022-11-23T10:46:43.458Z,99019.59
2022-11-23T10:49:17.132Z,99005.03
2022-11-23T10:51:53.542Z,99024.56
2022-11-23T10:54:27.628Z,99006.59
2022-11-23T10:56:56.401Z,99016.72
2022-11-23T10:59:35.410Z,99013.06
2022-11-23T11:02:12.685Z,98999.34
2022-11-23T11:04:41.467Z,99006.06
2022-11-23T11:07:29.873Z,99012.63
2022-11-23T11:09:59.449Z,99001.41
2022-11-23T11:12:28.966Z,99002.66
2022-11-23T11:15:10.816Z,98990.34
2022-11-23T11:17:41.098Z,99000.00
2022-11-23T11:20:25.081Z,98996.31
2022-11-23T11:22:52.768Z,99004.97
2022-11-23T11:25:29.651Z,98998.78
2022-11-23T11:27:58.356Z,99003.22
2022-11-23T11:30:31.372Z,98987.41
2022-11-23T11:33:04.965Z,98985.53
2022-11-23T11:35:34.925Z,98987.75
2022-11-23T11:38:05.805Z,98979.88
2022-11-23T11:40:35.622Z,98978.38
2022-11-23T11:43:05.665Z,98982.38
2022-11-23T11:45:38.942Z,98973.09
2022-11-23T11:48:12.130Z,98972.78
2022-11-23T11:50:44.098Z,98951.09
2022-11-23T11:53:14.983Z,98963.50
2022-11-23T11:55:49.791Z,98954.38
2022-11-23T11:58:18.298Z,98947.16
2022-11-23T12:00:48.813Z,98949.28
2022-11-23T12:03:23.875Z,98946.66
2022-11-23T12:05:53.077Z,98949.81
2022-11-23T12:08:24.893Z,98947.78
2022-11-23T12:10:54.117Z,98941.38
2022-11-23T12:13:24.007Z,98936.59
2022-11-23T12:15:59.451Z,98941.19
2022-11-23T12:18:36.693Z,98949.81
2022-11-23T12:21:06.813Z,98953.00
2022-11-23T12:23:44.875Z,98941.06
2022-11-23T12:26:20.524Z,98935.69
2022-11-23T12:29:12.605Z,98937.25
2022-11-23T12:31:45.219Z,98916.44
2022-11-23T12:34:25.954Z,98924.09
2022-11-23T12:37:13.566Z,98939.69
2022-11-23T12:39:59.643Z,98940.53
2022-11-23T12:42:33.479Z,98941.50
2022-11-23T12:45:10.978Z,98931.81
2022-11-23T12:47:47.594Z,98931.38
2022-11-23T12:50:23.157Z,98940.25
2022-11-23T12:53:01.140Z,98925.59
2022-11-23T12:55:34.087Z,98931.28
2022-11-23T12:58:05.952Z,98943.84
2022-11-23T13:00:37.652Z,98953.09
2022-11-23T13:03:28.431Z,98948.06
2022-11-23T13:06:27.315Z,98957.97
2022-11-23T13:09:17.905Z,98946.13
2022-11-23T13:12:02.444Z,98960.69
2022-11-23T13:14:35.625Z,98952.28
2022-11-23T13:17:13.001Z,98935.72
2022-11-23T13:20:05.543Z,98951.66
2022-11-23T13:22:34.390Z,98942.38
2022-11-23T13:25:15.089Z,98955.31
2022-11-23T13:27:44.578Z,98980.63
2022-11-23T13:30:25.184Z,98947.75
2022-11-23T13:32:58.656Z,98938.94
2022-11-23T13:35:56.913Z,98936.63
2022-11-23T13:38:38.618Z,98937.44
2022-11-23T13:41:55.448Z,98948.78
2022-11-23T13:44:25.701Z,98933.91
2022-11-23T13:47:05.973Z,98939.66
2022-11-23T13:49:36.908Z,98931.22
2022-11-23T13:52:36.295Z,98922.56
2022-11-23T13:55:21.973Z,98925.84
2022-11-23T13:58:23.883Z,98915.53
2022-11-23T14:00:53.505Z,98919.66
2022-11-23T14:03:52.065Z,98915.97
2022-11-23T14:06:23.966Z,98911.00
2022-11-23T14:08:56.594Z,98932.28
2022-11-23T14:11:24.965Z,98926.47
2022-11-23T14:13:55.941Z,98937.25
2022-11-23T14:16:40.529Z,98920.38
2022-11-23T14:19:19.004Z,98917.78
2022-11-23T14:21:54.112Z,98937.69
2022-11-23T14:24:38.213Z,98938.47
2022-11-23T14:27:46.291Z,98917.84
2022-11-23T14:30:22.562Z,98928.88
2022-11-23T14:33:07.232Z,98935.41
2022-11-23T14:35:44.989Z,98946.78
2022-11-23T14:38:46.437Z,98941.44
2022-11-23T14:41:18.224Z,98935.81
2022-11-23T14:43:47.780Z,98937.84
2022-11-23T14:46:19.392Z,98936.59
2022-11-23T14:48:49.801Z,98944.19
2022-11-23T14:51:19.348Z,98936.44
2022-11-23T14:53:51.080Z,98940.03
2022-11-23T14:56:36.009Z,98940.72
2022-11-23T14:59:06.049Z,98934.34
2022-11-23T15:01:34.829Z,98935.97
2022-11-23T15:04:09.566Z,98933.34
2022-11-23T15:06:45.307Z,98925.47
2022-11-23T15:09:18.565Z,98937.06
2022-11-23T15:11:52.791Z,98934.94
2022-11-23T15:14:27.112Z,98934.78
2022-11-23T15:16:54.989Z,98918.06
2022-11-23T15:19:28.693Z,98922.13
2022-11-23T15:21:57.898Z,98931.84
2022-11-23T15:24:27.204Z,98944.09
2022-11-23T15:27:10.890Z,98950.63
2022-11-23T15:29:52.873Z,98934.66
2022-11-23T15:32:32.066Z,98948.78
2022-11-23T15:35:04.535Z,98947.78
2022-11-23T15:37:34.530Z,98952.16
2022-11-23T15:40:14.304Z,98967.31
2022-11-23T15:42:44.762Z,98958.88
2022-11-23T15:45:35.123Z,98970.66
2022-11-23T15:48:03.491Z,98963.50
2022-11-23T15:50:34.409Z,98973.66
2022-11-23T15:53:02.506Z,98964.41
2022-11-23T15:55:31.875Z,98976.31
2022-11-23T15:58:07.553Z,98976.88
2022-11-23T16:00:35.605Z,98981.31
2022-11-23T16:03:28.375Z,98989.41
2022-11-23T16:06:25.650Z,98990.13
2022-11-23T16:08:55.122Z,98977.41
2022-11-23T16:11:31.076Z,98979.03
2022-11-23T16:14:18.085Z,98982.25
2022-11-23T16:16:47.791Z,98982.81
2022-11-23T16:19:26.620Z,98980.84
2022-11-23T16:22:01.987Z,98990.09
2022-11-23T16:24:31.595Z,98991.72
2022-11-23T16:27:00.775Z,98997.16
2022-11-23T16:29:37.036Z,99005.63
2022-11-23T16:32:07.180Z,99007.25
2022-11-23T16:34:36.553Z,99003.06
2022-11-23T16:37:10.384Z,99023.38
2022-11-23T16:39:38.085Z,99016.50
2022-11-23T16:42:05.818Z,99035.44
2022-11-23T16:44:40.138Z,99047.84
2022-11-23T16:47:23.337Z,99047.84
2022-11-23T16:49:51.484Z,99041.94
2022-11-23T16:52:19.376Z,99038.00
2022-11-23T16:54:46.932Z,99031.25
2022-11-23T16:57:29.135Z,99036.13
2022-11-23T17:00:04.608Z,99030.91
2022-11-23T17:02:37.299Z,99036.13
2022-11-23T17:05:07.848Z,99040.44
2022-11-23T17:07:35.537Z,99043.19
2022-11-23T17:10:05.259Z,99046.91
2022-11-23T17:12:33.041Z,99052.00
2022-11-23T17:15:02.012Z,99042.84
2022-11-23T17:17:30.482Z,99058.25
2022-11-23T17:20:03.662Z,99054.31
2022-11-23T17:22:32.775Z,99051.09
2022-11-23T17:25:03.137Z,99045.28
2022-11-23T17:27:34.034Z,99055.72
2022-11-23T17:30:03.867Z,99053.88
2022-11-23T17:32:31.946Z,99057.09
2022-11-23T17:35:00.577Z,99052.94
2022-11-23T17:37:29.080Z,99059.31
2022-11-23T17:39:56.873Z,99064.41
2022-11-23T17:42:27.010Z,99053.50
2022-11-23T17:44:56.476Z,99058.50
2022-11-23T17:47:28.897Z,99061.13
2022-11-23T17:49:56.841Z,99056.16
2022-11-23T17:52:26.149Z,99065.41
2022-11-23T17:54:54.377Z,99071.41
2022-11-23T17:57:25.004Z,99073.25
2022-11-23T17:59:54.496Z,99091.63
2022-11-23T18:02:23.430Z,99083.72
2022-11-23T18:04:52.983Z,99084.75
2022-11-23T18:07:22.549Z,99083.97
2022-11-23T18:09:52.390Z,99092.09
2022-11-23T18:12:21.627Z,99085.16
2022-11-23T18:14:50.025Z,99091.41
2022-11-23T18:17:19.057Z,99089.78
2022-11-23T18:19:46.646Z,99090.47
2022-11-23T18:22:16.465Z,99090.47
2022-11-23T18:24:45.762Z,99091.41
2022-11-23T18:27:14.537Z,99089.91
2022-11-23T18:29:43.043Z,99105.91
2022-11-23T18:32:11.259Z,99127.00
2022-11-23T18:34:39.514Z,99126.41
2022-11-23T18:37:08.253Z,99127.69
2022-11-23T18:39:37.933Z,99126.19
2022-11-23T18:42:07.015Z,99120.38
2022-11-23T18:44:36.227Z,99128.97
2022-11-23T18:47:05.468Z,99134.75
2022-11-23T18:49:33.266Z,99142.16
2022-11-23T18:52:01.987Z,99136.84
2022-11-23T18:54:30.629Z,99142.09
2022-11-23T18:57:01.221Z,99149.72
2022-11-23T18:59:56.309Z,99154.91
2022-11-23T19:02:18.453Z,99153.91
2022-11-23T19:04:46.188Z,99152.50
2022-11-23T19:07:14.046Z,99161.97
2022-11-23T19:09:43.505Z,99159.09
2022-11-23T19:12:17.408Z,99165.47
2022-11-23T19:15:49.603Z,99164.75
2022-11-23T19:18:19.255Z,99162.34
2022-11-23T19:20:48.935Z,99170.56
2022-11-23T19:23:23.527Z,99181.22
2022-11-23T19:26:57.961Z,99182.03
2022-11-23T19:29:28.854Z,99191.78
2022-11-23T19:31:56.713Z,99193.38
2022-11-23T19:34:24.282Z,99190.59
2022-11-23T19:36:51.841Z,99194.78
2022-11-23T19:39:20.333Z,99192.69
2022-11-23T19:41:48.216Z,99204.16
2022-11-23T19:44:16.466Z,99208.69
2022-11-23T19:46:45.544Z,99207.53
2022-11-23T19:49:13.135Z,99211.78
2022-11-23T19:51:41.643Z,99215.28
2022-11-23T19:54:12.127Z,99218.53
2022-11-23T19:56:40.025Z,99221.44
2022-11-23T19:59:07.662Z,99221.44
2022-11-23T20:01:36.184Z,99226.06
2022-11-23T20:04:09.667Z,99230.00
2022-11-23T20:06:42.422Z,99234.06
2022-11-23T20:09:11.848Z,99232.91
2022-11-23T20:11:50.680Z,99231.66
2022-11-23T20:14:21.406Z,99234.06
2022-11-23T20:16:49.154Z,99235.47
2022-11-23T20:19:20.444Z,99243.13
2022-11-23T20:21:48.150Z,99247.97
2022-11-23T20:24:16.474Z,99248.78
2022-11-23T20:26:46.102Z,99245.44
2022-11-23T20:29:14.790Z,99249.16
2022-11-23T20:31:44.717Z,99257.50
2022-11-23T20:34:20.453Z,99269.22
2022-11-23T20:36:50.330Z,99263.88
2022-11-23T20:39:18.637Z,99273.50
2022-11-23T20:41:52.063Z,99270.38
2022-11-23T20:44:20.831Z,99276.91
2022-11-23T20:47:01.665Z,99280.59
2022-11-23T20:49:30.721Z,99285.94
2022-11-23T20:51:59.693Z,99285.25
2022-11-23T20:54:29.077Z,99291.25
2022-11-23T20:56:59.764Z,99294.28
2022-11-23T20:59:27.489Z,99297.75
2022-11-23T21:01:56.287Z,99304.28
2022-11-23T21:04:25.294Z,99306.81
2022-11-23T21:06:53.490Z,99302.75
2022-11-23T21:09:22.668Z,99307.69
2022-11-23T21:12:11.448Z,99317.09
2022-11-23T21:14:40.665Z,99311.78
2022-11-23T21:17:08.444Z,99305.63
2022-11-23T21:19:37.919Z,99315.84
2022-11-23T21:22:08.469Z,99312.13
2022-11-23T21:24:39.407Z,99323.25
2022-11-23T21:27:09.782Z,99319.44
2022-11-23T21:29:39.264Z,99329.72
2022-11-23T21:32:08.935Z,99330.28
2022-11-23T21:34:36.970Z,99340.63
2022-11-23T21:37:04.998Z,99331.28
2022-11-23T21:39:35.215Z,99336.34
2022-11-23T21:42:06.555Z,99334.44
2022-11-23T21:44:36.549Z,99332.66
2022-11-23T21:47:04.404Z,99336.97
2022-11-23T21:49:32.103Z,99346.75
2022-11-23T21:52:00.612Z,99349.72
2022-11-23T21:54:28.219Z,99354.09
2022-11-23T21:56:57.987Z,99353.31
2022-11-23T21:59:26.914Z,99355.75
2022-11-23T22:01:58.545Z,99365.50
2022-11-23T22:04:27.460Z,99358.22
2022-11-23T22:06:55.617Z,99357.22
2022-11-23T22:09:24.292Z,99363.81
2022-11-23T22:11:54.554Z,99362.66
2022-11-23T22:14:22.543Z,99367.25
2022-11-23T22:16:53.596Z,99367.50
2022-11-23T22:19:21.506Z,99366.09
2022-11-23T22:21:50.609Z,99368.34
2022-11-23T22:24:22.313Z,99375.81
2022-11-23T22:26:52.222Z,99378.91
2022-11-23T22:29:20.922Z,99384.41
2022-11-23T22:31:50.835Z,99379.53
2022-11-23T22:34:20.485Z,99385.44
2022-11-23T22:36:51.571Z,99377.31
2022-11-23T22:39:20.063Z,99386.28
2022-11-23T22:41:51.888Z,99391.63
2022-11-23T22:44:19.616Z,99390.13
2022-11-23T22:46:47.221Z,99397.50
2022-11-23T22:49:15.738Z,99397.50
2022-11-23T22:51:50.122Z,99403.84
2022-11-23T22:54:18.669Z,99408.94
2022-11-23T22:56:52.298Z,99410.19
2022-11-23T22:59:20.587Z,99409.47
2022-11-23T23:01:50.773Z,99417.56
2022-11-23T23:04:18.613Z,99423.44
2022-11-23T23:06:50.851Z,99415.94
2022-11-23T23:09:18.647Z,99426.53
2022-11-23T23:11:47.090Z,99431.34
2022-11-23T23:14:15.965Z,99437.00
2022-11-23T23:16:44.159Z,99441.06
2022-11-23T23:19:13.645Z,99434.88
2022-11-23T23:21:42.290Z,99440.59
2022-11-23T23:24:15.726Z,99437.91
2022-11-23T23:26:43.180Z,99445.06
2022-11-23T23:29:11.771Z,99445.94
2022-11-23T23:31:40.145Z,99444.53
2022-11-23T23:34:10.243Z,99448.41
2022-11-23T23:36:40.913Z,99458.44
2022-11-23T23:39:09.347Z,99457.81
2022-11-23T23:42:40.292Z,99459.06
2022-11-23T23:45:10.949Z,99467.84
2022-11-23T23:47:40.493Z,99473.53
2022-11-23T23:50:09.834Z,99477.25
2022-11-23T23:52:38.265Z,99467.31
2022-11-23T23:55:06.876Z,99471.16
2022-11-23T23:57:35.114Z,99480.84
